Terminal Aerodrome Forecast
Issued by NWS Green Bay, WI

Home | Current Version | Previous Version | Graphics & Text | Print | Product List | Glossary On
Versions: 1 2 3 4 5 6 7 8 9 10 11 12 13 14 15 16 17 18 19 20 21 22 23 24 25 26 27 28 29 30 31 32 33 34 35 36
000
FTUS43 KGRB 081137
TAFGRB
TAF
KGRB 081137Z 0812/0912 28008KT P6SM -SN SCT015 OVC040
      TEMPO 0812/0815 4SM -SN BKN015
     FM081600 30010G18KT 4SM -SN BR BKN015 OVC025
     FM090000 31012KT 5SM -SN BR OVC011
     FM090600 32014G21KT 6SM -SN BKN015=

USA.gov is the U.S. government's official web portal to all federal, state and local government web resources and services.